Time;durP1;ratioP1;P1;durP2;ratioP2;P2;SDS_P1;SDS_P2;PMS_P1;PMS_P2;Temp;Humidity;BMP_temperature;BMP_pressure;BME280_temperature;BME280_humidity;BME280_pressure;Samples;Min_cycle;Max_cycle;Signal;HPM_P1;HPM_P2
2022/08/17 00:00:25;;;;;;;46.20;27.73;;;22.70;99.90;;;;;;5053216;28;25064;-74
2022/08/17 00:02:56;;;;;;;48.80;28.17;;;22.70;99.90;;;;;;5066440;28;25089;-76
2022/08/17 00:05:21;;;;;;;46.33;28.35;;;22.60;99.90;;;;;;5080761;28;25063;-75
2022/08/17 00:07:47;;;;;;;49.80;30.58;;;22.60;99.90;;;;;;5083862;28;25062;-74
2022/08/17 00:10:13;;;;;;;45.05;29.17;;;22.50;99.90;;;;;;5066917;28;25069;-74
2022/08/17 00:12:41;;;;;;;44.42;28.60;;;22.50;99.90;;;;;;5067318;28;25076;-76
2022/08/17 00:15:07;;;;;;;45.67;30.55;;;22.50;99.90;;;;;;5069507;28;25052;-76
2022/08/17 00:17:32;;;;;;;50.13;30.25;;;22.50;99.90;;;;;;5058699;28;25064;-77
2022/08/17 00:19:59;;;;;;;48.00;30.23;;;22.50;99.90;;;;;;5059762;28;25097;-75
2022/08/17 00:22:25;;;;;;;47.80;28.70;;;22.50;99.90;;;;;;5060151;28;25088;-75
2022/08/17 00:24:51;;;;;;;49.70;29.95;;;22.50;99.90;;;;;;5053119;28;25092;-75
2022/08/17 00:27:17;;;;;;;45.80;29.80;;;22.40;99.90;;;;;;5050873;28;25078;-74
2022/08/17 00:29:44;;;;;;;48.05;29.40;;;22.40;99.90;;;;;;5054094;28;25105;-74
2022/08/17 00:32:11;;;;;;;47.10;29.35;;;22.30;99.90;;;;;;5047270;28;25136;-73
2022/08/17 00:34:36;;;;;;;48.53;30.05;;;22.30;99.90;;;;;;5044499;28;25057;-73
2022/08/17 00:37:02;;;;;;;46.15;27.75;;;22.30;99.90;;;;;;5057251;28;25076;-75
2022/08/17 00:39:27;;;;;;;52.55;30.80;;;22.40;99.90;;;;;;5042257;28;25093;-73
2022/08/17 00:41:53;;;;;;;47.42;29.40;;;22.40;99.90;;;;;;5039891;28;25056;-74
2022/08/17 00:44:18;;;;;;;49.20;29.40;;;22.40;99.90;;;;;;5048033;28;25145;-76
2022/08/17 00:46:46;;;;;;;48.10;30.13;;;22.40;99.90;;;;;;5040415;28;25144;-73
2022/08/17 00:49:15;;;;;;;45.65;30.15;;;22.40;99.90;;;;;;5052646;28;25176;-74
2022/08/17 00:51:53;;;;;;;50.65;31.25;;;22.50;99.90;;;;;;5060898;28;25053;-75
2022/08/17 00:54:32;;;;;;;48.28;29.17;;;22.40;99.90;;;;;;5082715;28;25058;-76
2022/08/17 00:57:02;;;;;;;48.45;30.55;;;22.50;99.90;;;;;;5072325;28;25061;-75
2022/08/17 00:59:32;;;;;;;47.75;29.05;;;22.50;99.90;;;;;;5057498;28;25084;-74
2022/08/17 01:01:58;;;;;;;46.95;29.75;;;22.50;99.90;;;;;;5049495;28;25084;-73
2022/08/17 01:04:26;;;;;;;45.08;29.42;;;22.40;99.90;;;;;;5056942;28;25149;-74
2022/08/17 01:06:53;;;;;;;44.17;29.45;;;22.30;99.90;;;;;;5063721;28;25061;-76
2022/08/17 01:09:19;;;;;;;46.03;28.75;;;22.30;99.90;;;;;;5074835;28;25061;-75
2022/08/17 01:11:51;;;;;;;48.88;30.23;;;22.20;99.90;;;;;;5046350;28;25125;-74
2022/08/17 01:14:19;;;;;;;52.63;31.27;;;22.10;99.90;;;;;;5046792;28;25110;-73
2022/08/17 01:16:46;;;;;;;48.85;31.20;;;22.20;99.90;;;;;;5050775;28;25069;-75
2022/08/17 01:19:20;;;;;;;43.63;28.27;;;22.30;99.90;;;;;;5057580;28;25044;-74
2022/08/17 01:22:10;;;;;;;49.13;29.95;;;22.30;99.90;;;;;;5059987;28;25105;-76
2022/08/17 01:24:39;;;;;;;51.55;32.40;;;22.30;99.90;;;;;;5052828;28;25095;-75
2022/08/17 01:27:07;;;;;;;48.88;31.13;;;22.20;99.90;;;;;;5047535;28;25065;-74
2022/08/17 01:29:34;;;;;;;52.30;29.98;;;22.10;99.90;;;;;;5043248;28;25066;-75
2022/08/17 01:32:03;;;;;;;50.50;30.75;;;22.10;99.90;;;;;;5051206;28;25104;-75
2022/08/17 01:34:29;;;;;;;49.92;31.13;;;22.10;99.90;;;;;;5025446;28;25068;-76
2022/08/17 01:36:56;;;;;;;46.42;30.05;;;22.10;99.90;;;;;;5038898;28;25093;-75
2022/08/17 01:39:29;;;;;;;47.17;29.67;;;22.20;99.90;;;;;;5041461;28;25073;-75
2022/08/17 01:42:05;;;;;;;48.45;31.08;;;22.20;99.90;;;;;;5041197;28;25070;-74
2022/08/17 01:44:30;;;;;;;48.00;30.35;;;22.10;99.90;;;;;;5050700;28;25067;-71
2022/08/17 01:46:56;;;;;;;53.00;30.95;;;22.10;99.90;;;;;;5044456;28;25128;-73
2022/08/17 01:49:22;;;;;;;55.33;33.50;;;22.20;99.90;;;;;;5042299;28;25070;-74
2022/08/17 01:51:47;;;;;;;57.30;32.65;;;22.00;99.90;;;;;;5044951;28;25088;-74
2022/08/17 01:54:16;;;;;;;59.55;35.13;;;21.90;99.90;;;;;;5048966;28;25090;-72
2022/08/17 01:56:45;;;;;;;56.13;34.95;;;21.80;99.90;;;;;;5022371;28;25065;-73
2022/08/17 01:59:11;;;;;;;53.53;33.05;;;21.80;99.90;;;;;;5040498;28;25098;-72
2022/08/17 02:01:37;;;;;;;55.25;32.60;;;21.80;99.90;;;;;;5041347;28;25153;-72
2022/08/17 02:04:04;;;;;;;53.08;32.20;;;21.80;99.90;;;;;;5042281;28;25079;-74
2022/08/17 02:06:33;;;;;;;54.88;32.88;;;21.90;99.90;;;;;;5046119;28;25125;-72
2022/08/17 02:08:58;;;;;;;56.45;33.47;;;21.80;99.90;;;;;;5040535;28;25074;-72
2022/08/17 02:11:24;;;;;;;55.50;33.75;;;21.90;99.90;;;;;;5039589;28;25059;-72
2022/08/17 02:13:50;;;;;;;62.38;35.58;;;22.00;99.90;;;;;;5044967;28;25069;-76
2022/08/17 02:16:17;;;;;;;56.78;34.15;;;22.10;99.90;;;;;;5043499;28;25087;-74
2022/08/17 02:18:43;;;;;;;52.47;29.92;;;21.90;99.90;;;;;;5043731;28;25154;-72
2022/08/17 02:21:08;;;;;;;54.53;33.08;;;21.80;99.90;;;;;;5039274;28;25113;-73
2022/08/17 02:23:37;;;;;;;53.10;31.08;;;21.80;99.90;;;;;;5051932;28;25063;-74
2022/08/17 02:26:04;;;;;;;50.75;30.83;;;21.90;99.90;;;;;;5042172;28;25176;-73
2022/08/17 02:28:30;;;;;;;55.22;31.52;;;22.10;99.90;;;;;;5023289;28;25085;-71
2022/08/17 02:30:56;;;;;;;58.42;33.67;;;22.00;99.90;;;;;;5043643;28;25131;-74
2022/08/17 02:33:22;;;;;;;55.47;32.05;;;22.10;99.90;;;;;;5043124;28;25072;-74
2022/08/17 02:35:47;;;;;;;51.55;32.35;;;22.00;99.90;;;;;;5050647;28;25064;-77
2022/08/17 02:38:13;;;;;;;58.85;33.30;;;22.10;99.90;;;;;;5053018;28;25110;-75
2022/08/17 02:40:39;;;;;;;71.00;37.47;;;22.10;99.90;;;;;;5066377;28;25050;-77
2022/08/17 02:43:09;;;;;;;71.88;39.65;;;22.20;99.90;;;;;;5056096;28;25063;-75
2022/08/17 02:45:35;;;;;;;65.03;37.97;;;22.10;99.90;;;;;;5046746;28;25052;-77
2022/08/17 02:48:01;;;;;;;80.63;42.38;;;22.00;99.90;;;;;;5029386;28;25084;-77
2022/08/17 02:50:28;;;;;;;83.95;44.53;;;22.50;99.90;;;;;;5052549;28;25091;-79
2022/08/17 02:52:54;;;;;;;80.50;42.45;;;22.30;99.90;;;;;;5044074;28;25066;-77
2022/08/17 02:55:26;;;;;;;91.60;50.55;;;22.40;99.90;;;;;;5047284;28;25061;-76
2022/08/17 02:57:52;;;;;;;96.75;49.35;;;22.80;99.90;;;;;;5044890;28;25094;-77
2022/08/17 03:00:24;;;;;;;86.63;48.70;;;22.60;99.90;;;;;;5040296;28;25052;-75
2022/08/17 03:02:50;;;;;;;106.50;58.10;;;22.70;99.90;;;;;;5034650;28;25064;-78
2022/08/17 03:05:19;;;;;;;101.45;53.75;;;22.40;99.90;;;;;;5052935;28;25086;-78
2022/08/17 03:07:44;;;;;;;100.30;55.85;;;22.50;99.90;;;;;;5063070;28;25145;-75
2022/08/17 03:10:11;;;;;;;107.90;56.10;;;22.70;99.90;;;;;;5045939;28;25060;-75
2022/08/17 03:12:39;;;;;;;111.50;59.00;;;22.50;99.90;;;;;;5044944;28;25101;-76
2022/08/17 03:15:08;;;;;;;109.13;55.92;;;22.70;99.90;;;;;;5041360;28;25053;-78
2022/08/17 03:17:34;;;;;;;98.78;56.42;;;22.60;99.90;;;;;;5028395;28;25060;-78
2022/08/17 03:20:00;;;;;;;106.93;58.60;;;22.80;99.90;;;;;;5048378;28;25053;-77
2022/08/17 03:22:27;;;;;;;102.35;56.38;;;22.70;99.90;;;;;;5047773;28;25081;-75
2022/08/17 03:24:55;;;;;;;98.13;53.28;;;22.70;99.90;;;;;;5048306;28;25064;-76
2022/08/17 03:27:20;;;;;;;98.95;53.40;;;22.60;99.90;;;;;;5058227;28;25069;-78
2022/08/17 03:29:46;;;;;;;112.28;58.30;;;22.40;99.90;;;;;;5046223;28;25076;-75
2022/08/17 03:32:14;;;;;;;104.15;55.63;;;22.60;99.90;;;;;;5049247;28;25053;-78
2022/08/17 03:34:41;;;;;;;104.28;55.97;;;22.50;99.90;;;;;;5046747;28;25061;-77
2022/08/17 03:37:06;;;;;;;101.50;52.50;;;22.80;99.90;;;;;;5046642;28;25075;-76
2022/08/17 03:39:32;;;;;;;92.32;50.88;;;22.90;99.90;;;;;;5042092;28;25073;-76
2022/08/17 03:42:12;;;;;;;83.78;45.30;;;22.70;99.90;;;;;;5046724;28;25070;-77
2022/08/17 03:44:38;;;;;;;85.70;46.58;;;22.40;99.90;;;;;;5051592;28;25096;-75
2022/08/17 03:58:00;;;;;;;65.93;37.75;;;22.60;99.90;;;;;;5038914;28;25160;-78
2022/08/17 04:00:26;;;;;;;65.43;37.47;;;22.80;99.90;;;;;;5045143;28;25085;-75
2022/08/17 04:02:52;;;;;;;61.10;35.17;;;22.60;99.90;;;;;;5050649;28;25139;-76
2022/08/17 04:05:18;;;;;;;59.08;31.92;;;22.80;99.90;;;;;;5054613;28;25063;-76
2022/08/17 04:07:44;;;;;;;53.20;31.13;;;22.80;99.90;;;;;;5043891;28;25148;-77
2022/08/17 04:10:09;;;;;;;63.65;31.35;;;22.50;99.90;;;;;;5056582;28;25069;-76
2022/08/17 04:12:48;;;;;;;52.60;30.98;;;22.80;99.90;;;;;;5051353;28;25094;-77
2022/08/17 04:15:15;;;;;;;47.75;28.48;;;22.60;99.90;;;;;;5045760;28;25065;-76
2022/08/17 04:17:43;;;;;;;47.00;29.92;;;22.70;99.90;;;;;;5029520;28;25064;-75
2022/08/17 04:20:10;;;;;;;45.65;26.52;;;22.60;99.90;;;;;;5043704;28;25093;-76
2022/08/17 04:22:35;;;;;;;44.58;26.00;;;22.80;99.90;;;;;;5042221;28;25088;-75
2022/08/17 04:25:06;;;;;;;42.45;27.23;;;22.60;99.90;;;;;;5041279;28;25088;-75
2022/08/17 04:27:32;;;;;;;43.42;25.58;;;22.90;99.90;;;;;;5036393;28;25060;-76
2022/08/17 04:29:57;;;;;;;44.42;26.48;;;22.90;99.90;;;;;;5039243;28;25160;-77
2022/08/17 04:32:23;;;;;;;39.00;24.90;;;22.90;99.90;;;;;;5046126;28;25101;-77
2022/08/17 04:34:49;;;;;;;39.17;24.77;;;22.80;99.90;;;;;;5044772;28;25071;-76
2022/08/17 04:37:14;;;;;;;37.75;25.35;;;22.70;99.90;;;;;;5048743;28;25108;-77
2022/08/17 04:42:05;;;;;;;39.83;24.85;;;22.80;99.90;;;;;;5052436;28;25050;-76
2022/08/17 04:42:25;;;;;;;46.65;25.70;;;22.80;99.90;;;;;;5045641;28;25061;-76
2022/08/17 04:44:51;;;;;;;42.28;25.83;;;22.90;99.90;;;;;;5049206;28;25084;-78
2022/08/17 04:47:16;;;;;;;46.58;27.15;;;22.70;99.90;;;;;;5040218;28;25053;-76
2022/08/17 04:49:42;;;;;;;48.50;28.52;;;22.80;99.90;;;;;;5049380;28;25075;-77
2022/08/17 04:52:07;;;;;;;44.47;28.27;;;22.80;99.90;;;;;;5042222;28;25075;-76
2022/08/17 04:54:33;;;;;;;45.45;28.35;;;22.80;99.90;;;;;;5034410;28;25071;-75
2022/08/17 04:56:59;;;;;;;44.60;28.10;;;22.70;99.90;;;;;;5051412;28;25076;-75
2022/08/17 04:59:24;;;;;;;47.47;29.00;;;22.60;99.90;;;;;;5044543;28;25064;-74
2022/08/17 05:01:51;;;;;;;47.67;27.70;;;22.70;99.90;;;;;;5040221;28;25058;-74
2022/08/17 05:04:20;;;;;;;51.03;30.40;;;22.70;99.90;;;;;;5030844;28;25051;-74
2022/08/17 05:06:46;;;;;;;49.50;30.70;;;22.80;99.90;;;;;;5033618;28;25069;-76
2022/08/17 05:09:12;;;;;;;55.65;29.33;;;22.80;99.90;;;;;;5041768;28;25095;-78
2022/08/17 05:11:38;;;;;;;50.22;31.08;;;22.70;99.90;;;;;;5046299;28;25064;-76
2022/08/17 05:14:04;;;;;;;48.70;27.08;;;22.80;99.90;;;;;;5046257;28;25059;-77
2022/08/17 05:16:30;;;;;;;49.55;29.50;;;22.80;99.90;;;;;;5038483;28;25131;-79
2022/08/17 05:18:57;;;;;;;50.20;29.80;;;22.70;99.90;;;;;;5046713;28;25066;-77
2022/08/17 05:21:23;;;;;;;51.35;29.92;;;22.80;99.90;;;;;;5051543;28;25098;-77
2022/08/17 05:23:49;;;;;;;57.40;31.77;;;22.70;99.90;;;;;;5042127;28;25078;-78
2022/08/17 05:26:18;;;;;;;49.38;27.95;;;22.70;99.90;;;;;;5041438;28;25153;-80
2022/08/17 05:28:44;;;;;;;47.30;28.92;;;22.80;99.90;;;;;;5042701;28;25049;-79
2022/08/17 05:31:09;;;;;;;49.25;30.05;;;23.00;99.90;;;;;;5035633;28;25093;-77
2022/08/17 05:33:38;;;;;;;48.38;30.20;;;22.90;99.90;;;;;;5040896;28;25136;-79
2022/08/17 05:36:06;;;;;;;55.83;30.98;;;23.00;99.90;;;;;;5039699;28;25068;-79
2022/08/17 05:38:32;;;;;;;46.92;28.10;;;22.90;99.90;;;;;;5050308;28;25064;-79
2022/08/17 05:41:02;;;;;;;47.63;27.90;;;23.20;99.90;;;;;;5032206;28;25068;-77
2022/08/17 05:43:31;;;;;;;44.03;27.55;;;23.30;99.90;;;;;;5040946;28;25062;-79
2022/08/17 05:46:18;;;;;;;40.85;25.77;;;23.10;99.90;;;;;;5044283;28;25070;-76
2022/08/17 05:48:50;;;;;;;47.47;25.65;;;22.90;99.90;;;;;;5051884;28;25066;-78
2022/08/17 05:51:49;;;;;;;44.30;29.75;;;22.80;99.90;;;;;;5058200;28;25072;-78
2022/08/17 05:54:30;;;;;;;48.17;29.77;;;23.00;99.90;;;;;;5039743;28;25078;-78
2022/08/17 05:57:24;;;;;;;46.33;26.48;;;22.70;99.90;;;;;;5018375;28;25090;-77
2022/08/17 06:00:17;;;;;;;45.58;27.70;;;22.80;99.90;;;;;;5043495;28;25142;-75
2022/08/17 06:02:59;;;;;;;46.45;27.42;;;23.00;99.90;;;;;;5042720;28;25080;-77
2022/08/17 06:05:47;;;;;;;52.88;29.45;;;22.80;99.90;;;;;;5039071;28;25091;-76
2022/08/17 06:08:22;;;;;;;45.33;27.13;;;22.70;99.90;;;;;;5051520;28;25081;-77
2022/08/17 06:10:56;;;;;;;45.25;28.98;;;22.50;99.90;;;;;;5067742;28;25068;-79
2022/08/17 06:13:43;;;;;;;45.30;26.65;;;22.60;99.90;;;;;;5036924;28;25157;-78
2022/08/17 06:16:14;;;;;;;41.60;27.38;;;22.60;99.90;;;;;;5051328;28;25124;-78
2022/08/17 06:18:55;;;;;;;47.30;26.98;;;22.70;99.90;;;;;;5046195;28;25142;-78
2022/08/17 06:21:23;;;;;;;42.45;26.13;;;22.80;99.90;;;;;;5054282;28;25071;-77
2022/08/17 06:23:58;;;;;;;40.72;27.05;;;22.60;99.90;;;;;;5048808;28;25056;-79
2022/08/17 06:26:31;;;;;;;41.90;25.60;;;22.90;99.90;;;;;;5041169;28;25087;-76
2022/08/17 06:29:11;;;;;;;45.33;26.65;;;22.90;99.90;;;;;;5034814;28;25091;-76
2022/08/17 06:31:39;;;;;;;42.95;26.30;;;22.70;99.90;;;;;;5042809;28;25088;-76
2022/08/17 06:34:09;;;;;;;42.38;25.60;;;22.60;99.90;;;;;;5045156;28;25126;-76
2022/08/17 06:36:51;;;;;;;40.25;25.42;;;22.70;99.90;;;;;;5039875;28;24823;-76
2022/08/17 06:39:32;;;;;;;47.28;25.55;;;22.80;99.90;;;;;;5041387;28;25106;-76
2022/08/17 06:42:43;;;;;;;37.72;23.35;;;22.80;99.90;;;;;;5037325;28;25065;-76
2022/08/17 06:45:36;;;;;;;32.15;20.48;;;23.00;99.90;;;;;;5034556;28;25051;-74
2022/08/17 06:48:06;;;;;;;39.47;22.35;;;22.70;99.90;;;;;;5041601;28;25060;-76
2022/08/17 06:50:50;;;;;;;36.83;21.50;;;22.70;99.90;;;;;;5033516;28;25144;-76
2022/08/17 06:53:23;;;;;;;33.97;21.23;;;22.60;99.90;;;;;;5046459;28;25073;-74
2022/08/17 06:56:06;;;;;;;38.67;22.00;;;22.60;99.90;;;;;;5057173;28;25063;-75
2022/08/17 06:58:34;;;;;;;39.25;23.95;;;22.60;99.90;;;;;;5051020;28;25074;-74
2022/08/17 07:01:07;;;;;;;33.40;22.23;;;22.60;99.90;;;;;;5050893;28;25073;-74
2022/08/17 07:03:48;;;;;;;39.28;22.02;;;22.60;99.90;;;;;;5048779;28;25077;-75
2022/08/17 07:06:18;;;;;;;35.57;24.63;;;22.60;99.90;;;;;;5051957;28;25062;-74
2022/08/17 07:08:52;;;;;;;34.90;23.10;;;22.60;99.90;;;;;;5044481;28;25104;-75
2022/08/17 07:11:26;;;;;;;39.63;23.60;;;22.70;99.90;;;;;;5039822;28;25135;-74
2022/08/17 07:14:11;;;;;;;35.17;22.30;;;22.80;99.90;;;;;;5049674;28;25110;-75
2022/08/17 07:16:45;;;;;;;39.13;23.75;;;22.70;99.90;;;;;;5048122;28;25095;-74
2022/08/17 07:19:14;;;;;;;38.90;24.15;;;22.70;99.90;;;;;;5042024;28;25076;-75
2022/08/17 07:21:56;;;;;;;32.25;21.85;;;22.60;99.90;;;;;;5051291;28;25072;-74
2022/08/17 07:24:49;;;;;;;34.92;21.27;;;22.50;99.90;;;;;;5042734;28;25105;-75
2022/08/17 07:27:22;;;;;;;34.33;21.58;;;22.60;99.90;;;;;;5040932;28;25077;-76
2022/08/17 07:29:59;;;;;;;;;;;22.50;99.90;;;;;;5051480;28;25053;-77
2022/08/17 07:32:30;;;;;;;31.58;20.70;;;22.50;99.90;;;;;;5049152;28;24155;-75
2022/08/17 07:35:02;;;;;;;33.58;19.90;;;22.40;99.90;;;;;;5056764;28;25062;-75
2022/08/17 07:37:28;;;;;;;30.67;19.63;;;22.60;99.90;;;;;;5055952;28;25099;-73
2022/08/17 07:39:54;;;;;;;26.90;18.70;;;22.50;99.90;;;;;;5042215;28;25074;-76
2022/08/17 07:42:20;;;;;;;28.45;18.20;;;22.60;99.90;;;;;;5039114;28;25069;-75
2022/08/17 07:44:52;;;;;;;28.02;18.17;;;22.40;99.90;;;;;;5056950;28;25116;-73
2022/08/17 07:50:24;;;;;;;27.23;17.80;;;22.50;99.90;;;;;;5052361;28;25135;-74
2022/08/17 07:52:52;;;;;;;26.35;17.33;;;22.30;99.90;;;;;;5056184;28;25074;-75
2022/08/17 07:55:29;;;;;;;30.17;19.17;;;22.20;99.90;;;;;;5067128;28;25050;-76
2022/08/17 07:57:56;;;;;;;30.20;20.40;;;22.30;99.90;;;;;;5056018;28;25100;-75
2022/08/17 08:00:23;;;;;;;28.52;18.65;;;22.20;99.90;;;;;;5063399;28;25089;-74
2022/08/17 08:03:00;;;;;;;27.02;18.95;;;22.20;99.90;;;;;;5051966;28;25108;-74
2022/08/17 08:05:28;;;;;;;35.00;20.13;;;22.30;99.90;;;;;;5055245;28;25061;-74
2022/08/17 08:08:04;;;;;;;26.27;18.05;;;22.30;99.90;;;;;;5046735;28;25076;-74
2022/08/17 08:10:34;;;;;;;22.08;15.90;;;22.40;99.90;;;;;;5049912;28;25084;-74
2022/08/17 08:13:10;;;;;;;26.50;18.02;;;22.60;99.90;;;;;;5055220;28;25106;-74
2022/08/17 08:15:39;;;;;;;26.50;17.63;;;22.60;99.90;;;;;;5057669;28;25069;-75
2022/08/17 08:18:25;;;;;;;23.77;16.30;;;22.50;99.90;;;;;;5044941;28;25046;-74
2022/08/17 08:21:24;;;;;;;24.42;16.15;;;22.20;99.90;;;;;;5062962;28;25059;-74
2022/08/17 08:23:58;;;;;;;21.70;14.52;;;22.10;99.90;;;;;;5043169;28;25097;-74
2022/08/17 08:26:34;;;;;;;22.42;14.82;;;22.10;99.90;;;;;;5064810;28;25047;-73
2022/08/17 08:29:21;;;;;;;21.15;14.90;;;22.00;99.90;;;;;;5068242;28;25121;-72
2022/08/17 08:31:58;;;;;;;21.88;14.93;;;21.90;99.90;;;;;;5061101;28;25054;-74
2022/08/17 08:34:35;;;;;;;25.45;15.95;;;22.00;99.90;;;;;;5042720;28;25056;-75
2022/08/17 08:37:19;;;;;;;18.50;13.40;;;22.10;99.90;;;;;;5063576;28;25146;-72
2022/08/17 08:39:48;;;;;;;19.55;14.32;;;22.00;99.90;;;;;;5061539;28;25059;-73
2022/08/17 08:42:42;;;;;;;20.02;13.52;;;22.00;99.90;;;;;;5045106;28;25082;-72
2022/08/17 08:45:18;;;;;;;21.25;12.98;;;22.10;99.90;;;;;;5036767;28;25061;-74
2022/08/17 08:47:56;;;;;;;21.10;13.13;;;21.80;99.90;;;;;;5066373;28;25064;-72
2022/08/17 08:50:47;;;;;;;20.23;13.82;;;21.80;99.90;;;;;;5063611;28;25058;-74
2022/08/17 08:53:20;;;;;;;21.20;13.73;;;21.80;99.90;;;;;;5055066;28;25086;-73
2022/08/17 08:56:03;;;;;;;18.17;13.43;;;21.80;99.90;;;;;;5043309;28;25051;-73
2022/08/17 08:58:49;;;;;;;20.45;13.50;;;21.70;99.90;;;;;;5051403;28;25154;-73
2022/08/17 09:01:36;;;;;;;17.13;12.50;;;21.80;99.90;;;;;;5044914;28;25071;-73
2022/08/17 09:04:10;;;;;;;18.80;12.95;;;21.80;99.90;;;;;;5033046;28;25060;-74
2022/08/17 09:06:49;;;;;;;20.45;13.43;;;21.90;99.90;;;;;;5052581;28;25109;-73
2022/08/17 09:09:48;;;;;;;15.90;12.30;;;21.80;99.90;;;;;;5039404;28;25138;-75
2022/08/17 09:12:32;;;;;;;17.25;12.73;;;21.80;99.90;;;;;;5044938;28;25051;-73
2022/08/17 09:15:05;;;;;;;18.92;14.27;;;21.80;99.90;;;;;;5043282;28;25107;-72
2022/08/17 09:17:59;;;;;;;21.27;14.77;;;21.80;99.90;;;;;;5053214;28;25062;-72
2022/08/17 09:20:42;;;;;;;19.98;14.38;;;21.90;99.90;;;;;;5060514;28;25077;-73
2022/08/17 09:23:25;;;;;;;19.33;14.25;;;21.80;99.90;;;;;;5063130;28;25064;-74
2022/08/17 09:25:58;;;;;;;21.35;15.40;;;21.80;99.90;;;;;;5056602;28;25061;-73
2022/08/17 09:28:32;;;;;;;20.13;13.35;;;21.80;99.90;;;;;;5065694;28;25089;-75
2022/08/17 09:31:05;;;;;;;17.63;13.15;;;22.00;99.90;;;;;;5054330;28;25138;-73
2022/08/17 09:33:38;;;;;;;22.10;14.65;;;22.00;99.90;;;;;;5060387;28;25112;-75
2022/08/17 09:36:14;;;;;;;18.10;14.02;;;21.80;99.90;;;;;;5057416;28;25071;-72
2022/08/17 09:39:06;;;;;;;20.88;13.77;;;21.90;99.90;;;;;;5052139;28;25071;-73
2022/08/17 09:41:43;;;;;;;16.17;11.63;;;22.00;99.90;;;;;;5057179;28;25061;-72
2022/08/17 09:44:34;;;;;;;19.63;13.07;;;21.90;99.90;;;;;;5044792;28;25072;-72
2022/08/17 09:47:03;;;;;;;16.98;12.15;;;22.00;99.90;;;;;;5055475;28;25063;-76
2022/08/17 09:49:33;;;;;;;14.82;11.57;;;22.20;99.90;;;;;;5059171;28;25081;-75
2022/08/17 09:52:13;;;;;;;14.80;11.55;;;22.10;99.90;;;;;;5067329;28;25072;-71
2022/08/17 09:54:40;;;;;;;14.70;10.80;;;22.00;99.90;;;;;;5048066;28;25146;-74
2022/08/17 09:57:29;;;;;;;20.15;12.23;;;22.10;99.90;;;;;;5042759;28;25068;-70
2022/08/17 10:00:14;;;;;;;16.27;12.15;;;22.10;99.90;;;;;;5048398;28;25078;-73
2022/08/17 10:02:55;;;;;;;15.30;10.63;;;22.00;99.90;;;;;;5048807;28;25075;-73
2022/08/17 10:05:46;;;;;;;17.08;11.90;;;22.10;99.90;;;;;;5044674;28;25071;-73
2022/08/17 10:08:45;;;;;;;14.63;9.93;;;21.90;99.90;;;;;;5050578;28;25091;-72
2022/08/17 10:14:42;;;;;;;11.90;8.32;;;21.90;99.90;;;;;;5048909;28;25072;-73
2022/08/17 10:17:29;;;;;;;11.93;8.60;;;22.00;99.90;;;;;;5043847;28;25078;-72
2022/08/17 10:20:05;;;;;;;10.98;8.25;;;21.80;99.90;;;;;;5050700;28;25085;-74
2022/08/17 10:28:19;;;;;;;8.93;7.35;;;21.60;99.90;;;;;;5053182;28;25128;-73
2022/08/17 10:30:49;;;;;;;8.10;6.45;;;21.70;99.90;;;;;;5066981;28;25054;-76
2022/08/17 10:33:22;;;;;;;14.73;7.82;;;21.50;99.90;;;;;;5049593;28;25059;-73
2022/08/17 10:36:16;;;;;;;9.73;7.43;;;21.60;99.90;;;;;;5055747;28;25060;-71
2022/08/17 10:38:47;;;;;;;12.48;7.85;;;21.60;99.90;;;;;;5056172;28;25076;-73
2022/08/17 10:41:30;;;;;;;13.45;8.55;;;21.70;99.90;;;;;;5018392;28;25070;-72
2022/08/17 10:44:34;;;;;;;11.18;8.77;;;21.60;99.90;;;;;;5055082;28;25150;-72
2022/08/17 10:47:10;;;;;;;16.52;9.93;;;21.70;99.90;;;;;;4991977;28;25078;-72
2022/08/17 10:49:46;;;;;;;15.98;10.27;;;21.80;99.90;;;;;;5055716;28;25055;-72
2022/08/17 10:52:26;;;;;;;14.13;10.35;;;21.80;99.90;;;;;;5040369;28;25067;-73
2022/08/17 10:54:55;;;;;;;14.02;9.63;;;21.70;99.90;;;;;;5045869;28;25086;-73
2022/08/17 10:57:32;;;;;;;13.57;9.77;;;21.70;99.90;;;;;;5044883;28;25073;-71
2022/08/17 11:00:19;;;;;;;12.02;8.88;;;21.80;99.90;;;;;;5046143;28;25059;-71
2022/08/17 11:02:51;;;;;;;14.32;9.52;;;22.00;99.90;;;;;;5045383;28;25128;-71
2022/08/17 11:05:31;;;;;;;13.75;10.05;;;21.80;99.90;;;;;;5041515;28;25092;-73
2022/08/17 11:08:06;;;;;;;18.77;11.15;;;21.80;99.90;;;;;;5039830;28;25075;-70
2022/08/17 11:10:50;;;;;;;16.33;10.52;;;21.80;99.90;;;;;;5046627;28;25063;-72
2022/08/17 11:13:39;;;;;;;15.60;11.15;;;21.90;99.90;;;;;;5046512;28;25053;-74
2022/08/17 11:16:36;;;;;;;17.58;12.30;;;21.80;99.90;;;;;;5045564;28;25055;-73
2022/08/17 11:19:25;;;;;;;27.60;14.60;;;21.70;99.90;;;;;;5040838;28;25056;-74
2022/08/17 11:22:15;;;;;;;21.42;14.75;;;21.80;99.90;;;;;;5047987;28;25054;-76
2022/08/17 11:24:46;;;;;;;23.55;15.00;;;21.80;99.90;;;;;;5039612;28;25070;-76
2022/08/17 11:27:29;;;;;;;26.07;16.30;;;21.90;99.90;;;;;;5045219;28;25152;-77
2022/08/17 11:30:06;;;;;;;28.40;16.60;;;21.80;99.90;;;;;;5036655;28;25064;-76
2022/08/17 11:32:40;;;;;;;27.40;17.73;;;22.00;99.90;;;;;;5040132;28;25194;-75
2022/08/17 11:35:21;;;;;;;31.08;18.48;;;22.20;99.90;;;;;;5059643;28;25089;-77
2022/08/17 11:38:01;;;;;;;27.38;18.83;;;22.20;99.90;;;;;;5049551;28;25101;-75
2022/08/17 11:40:40;;;;;;;30.60;18.50;;;22.20;99.90;;;;;;5050217;28;25068;-74
2022/08/17 11:43:18;;;;;;;31.83;19.92;;;22.30;99.90;;;;;;5046057;28;25135;-76
2022/08/17 11:46:01;;;;;;;32.75;20.33;;;22.30;99.90;;;;;;5047389;28;25061;-74
2022/08/17 11:51:33;;;;;;;38.50;21.92;;;22.60;99.90;;;;;;5039941;28;25093;-74
2022/08/17 11:54:31;;;;;;;39.65;22.70;;;22.60;99.90;;;;;;5039997;28;25070;-74
2022/08/17 11:57:19;;;;;;;37.65;21.83;;;22.60;99.90;;;;;;5045357;28;25089;-77
2022/08/17 11:59:45;;;;;;;34.80;20.80;;;22.80;99.90;;;;;;5046580;28;25075;-76
2022/08/17 12:02:33;;;;;;;38.70;23.65;;;22.90;99.90;;;;;;5048163;28;25116;-75
2022/08/17 12:05:26;;;;;;;37.30;21.65;;;22.90;99.90;;;;;;5044114;28;25149;-74
2022/08/17 12:08:10;;;;;;;38.45;24.30;;;22.80;99.90;;;;;;5028413;28;25072;-73
2022/08/17 12:10:48;;;;;;;38.63;23.10;;;23.10;99.90;;;;;;5045489;28;25163;-72
2022/08/17 12:13:17;;;;;;;36.47;23.23;;;23.00;99.90;;;;;;5045951;28;25134;-75
2022/08/17 12:15:48;;;;;;;35.40;23.70;;;23.00;99.90;;;;;;5059388;28;24978;-73
2022/08/17 12:18:27;;;;;;;34.55;23.02;;;22.90;99.90;;;;;;5050762;28;25077;-75
2022/08/17 12:21:14;;;;;;;41.97;22.98;;;23.40;99.90;;;;;;5048360;28;25066;-73
2022/08/17 12:23:50;;;;;;;39.85;24.02;;;23.10;99.90;;;;;;5046970;28;25063;-72
2022/08/17 12:26:30;;;;;;;44.45;23.88;;;23.20;99.90;;;;;;5048695;28;25067;-73
2022/08/17 12:29:01;;;;;;;39.92;24.00;;;23.40;99.90;;;;;;5050749;28;25163;-74
2022/08/17 12:31:33;;;;;;;41.97;23.27;;;23.40;99.90;;;;;;5048593;28;25097;-75
2022/08/17 12:34:01;;;;;;;41.40;24.27;;;23.20;99.90;;;;;;5037859;28;25081;-74
2022/08/17 12:36:27;;;;;;;40.28;24.55;;;23.20;99.90;;;;;;5034867;28;25132;-74
2022/08/17 12:39:00;;;;;;;33.75;22.58;;;23.50;99.90;;;;;;5042824;28;25160;-73
2022/08/17 12:41:33;;;;;;;44.13;26.42;;;23.60;99.90;;;;;;5049333;28;25071;-73
2022/08/17 12:44:08;;;;;;;47.97;25.23;;;23.80;99.90;;;;;;5038274;28;25051;-75
2022/08/17 12:46:46;;;;;;;38.78;23.73;;;23.70;99.90;;;;;;5045924;28;25112;-71
2022/08/17 12:49:24;;;;;;;38.95;24.73;;;23.40;99.90;;;;;;5038647;28;25104;-74
2022/08/17 12:51:51;;;;;;;39.50;24.38;;;23.70;99.90;;;;;;5047110;28;25102;-74
2022/08/17 12:54:30;;;;;;;40.83;26.35;;;23.50;99.90;;;;;;5045500;28;25076;-74
2022/08/17 12:57:00;;;;;;;38.35;25.17;;;23.60;99.90;;;;;;5045551;28;25066;-75
2022/08/17 12:59:27;;;;;;;45.30;25.55;;;23.80;99.90;;;;;;5044949;28;25073;-74
2022/08/17 13:01:54;;;;;;;43.95;26.35;;;23.70;99.90;;;;;;5045764;28;25189;-74
2022/08/17 13:04:19;;;;;;;45.95;27.13;;;23.80;99.90;;;;;;5044007;28;25082;-74
2022/08/17 13:06:50;;;;;;;42.03;25.25;;;24.00;99.90;;;;;;5049936;28;25114;-74
2022/08/17 13:09:29;;;;;;;44.05;26.45;;;24.00;99.90;;;;;;5045758;28;25156;-76
2022/08/17 13:12:01;;;;;;;41.38;23.90;;;23.80;99.90;;;;;;5080092;27;25076;-65
2022/08/17 13:14:27;;;;;;;37.33;23.25;;;24.00;99.90;;;;;;5062074;28;25079;-66
2022/08/17 13:17:00;;;;;;;35.55;23.60;;;24.00;99.90;;;;;;5061597;28;25069;-67
2022/08/17 13:19:29;;;;;;;39.17;24.38;;;23.80;99.90;;;;;;5060675;28;25071;-65
2022/08/17 13:22:00;;;;;;;46.35;25.85;;;23.80;99.90;;;;;;5053912;28;25078;-65
2022/08/17 13:24:32;;;;;;;41.63;26.33;;;24.00;99.90;;;;;;5077806;22;25063;-67